createdAt,value
2022-12-13T00:02:21.596Z,10.00
2022-12-13T00:05:24.723Z,7.07
2022-12-13T00:08:29.238Z,11.07
2022-12-13T00:11:33.220Z,9.87
2022-12-13T00:14:36.446Z,11.10
2022-12-13T00:17:39.572Z,11.17
2022-12-13T00:20:42.695Z,12.00
2022-12-13T00:23:47.856Z,11.90
2022-12-13T00:26:50.962Z,10.77
2022-12-13T00:29:54.222Z,10.83
2022-12-13T00:32:57.576Z,9.47
2022-12-13T00:36:00.804Z,9.13
2022-12-13T00:39:05.444Z,9.83
2022-12-13T00:42:08.597Z,10.90
2022-12-13T00:45:13.548Z,10.23
2022-12-13T00:48:16.852Z,7.87
2022-12-13T00:51:21.372Z,5.40
2022-12-13T00:54:25.877Z,7.53
2022-12-13T00:57:29.047Z,6.33
2022-12-13T01:00:33.354Z,9.53
2022-12-13T01:03:37.623Z,8.60
2022-12-13T01:06:42.326Z,5.43
2022-12-13T01:09:46.801Z,6.67
2022-12-13T01:12:49.913Z,8.17
2022-12-13T01:15:53.016Z,10.13
2022-12-13T01:18:57.779Z,6.07
2022-12-13T01:22:03.642Z,5.83
2022-12-13T01:25:09.214Z,7.67
2022-12-13T01:28:12.323Z,13.03
2022-12-13T01:31:17.743Z,12.50
2022-12-13T01:34:26.545Z,8.30
2022-12-13T01:37:29.983Z,11.23
2022-12-13T01:40:38.596Z,7.20
2022-12-13T01:43:56.961Z,6.67
2022-12-13T01:47:00.091Z,6.57
2022-12-13T01:50:07.463Z,10.47
2022-12-13T01:53:13.977Z,7.93
2022-12-13T01:56:22.235Z,7.97
2022-12-13T01:59:27.175Z,8.60
2022-12-13T02:02:30.634Z,6.23
2022-12-13T02:05:37.547Z,6.37
2022-12-13T02:08:42.710Z,7.60
2022-12-13T02:11:48.011Z,8.40
2022-12-13T02:14:52.794Z,9.17
2022-12-13T02:18:19.508Z,9.60
2022-12-13T02:21:28.784Z,6.50
2022-12-13T02:24:53.229Z,6.03
2022-12-13T02:28:31.491Z,5.93
2022-12-13T02:31:43.979Z,5.10
2022-12-13T02:34:52.692Z,7.80
2022-12-13T02:38:04.259Z,6.40
2022-12-13T02:41:15.963Z,5.47
2022-12-13T02:44:23.202Z,7.77
2022-12-13T02:47:30.377Z,7.57
2022-12-13T02:50:34.650Z,6.70
2022-12-13T02:53:39.635Z,8.87
2022-12-13T02:56:42.801Z,10.10
2022-12-13T02:59:46.111Z,6.53
2022-12-13T03:03:14.078Z,5.30
2022-12-13T03:06:33.894Z,6.33
2022-12-13T03:09:50.493Z,6.30
2022-12-13T03:13:19.383Z,8.90
2022-12-13T03:16:28.681Z,7.03
2022-12-13T03:19:33.234Z,6.47
2022-12-13T03:22:36.405Z,6.97
2022-12-13T03:25:39.641Z,5.50
2022-12-13T03:28:43.038Z,4.87
2022-12-13T03:31:46.775Z,5.97
2022-12-13T03:35:00.505Z,5.00
2022-12-13T03:38:05.593Z,3.60
2022-12-13T03:41:12.013Z,5.00
2022-12-13T03:44:15.401Z,5.50
2022-12-13T03:47:18.670Z,5.53
2022-12-13T03:50:27.191Z,5.33
2022-12-13T03:53:32.343Z,4.30
2022-12-13T03:56:37.372Z,5.03
2022-12-13T03:59:40.461Z,8.07
2022-12-13T04:02:43.667Z,4.73
2022-12-13T04:05:48.148Z,4.93
2022-12-13T04:08:51.548Z,4.17
2022-12-13T04:12:11.892Z,7.43
2022-12-13T04:15:15.310Z,5.17
2022-12-13T04:18:19.498Z,4.70
2022-12-13T04:21:23.984Z,5.23
2022-12-13T04:24:30.810Z,5.10
2022-12-13T04:27:35.180Z,4.73
2022-12-13T04:30:38.670Z,5.40
2022-12-13T04:33:41.751Z,4.07
2022-12-13T04:36:46.200Z,4.77
2022-12-13T04:39:49.259Z,5.87
2022-12-13T04:42:54.270Z,7.23
2022-12-13T04:45:58.877Z,6.33
2022-12-13T04:49:02.200Z,8.53
2022-12-13T04:52:06.644Z,9.73
2022-12-13T04:55:10.380Z,6.80
2022-12-13T04:58:16.121Z,10.60
2022-12-13T05:01:22.909Z,9.60
2022-12-13T05:04:32.142Z,9.47
2022-12-13T05:07:42.571Z,11.60
2022-12-13T05:10:46.071Z,10.93
2022-12-13T05:13:49.170Z,6.73
2022-12-13T05:16:53.372Z,7.60
2022-12-13T05:19:56.517Z,5.47
2022-12-13T05:23:00.996Z,7.33
2022-12-13T05:26:04.656Z,6.63
2022-12-13T05:29:07.797Z,6.17
2022-12-13T05:32:10.939Z,8.60
2022-12-13T05:35:21.981Z,5.93
2022-12-13T05:38:28.199Z,6.20
2022-12-13T05:41:35.420Z,11.73
2022-12-13T05:44:38.551Z,10.80
2022-12-13T05:47:41.644Z,7.77
2022-12-13T05:50:44.824Z,7.50
2022-12-13T05:53:53.229Z,7.53
2022-12-13T05:56:56.749Z,7.70
2022-12-13T06:00:00.051Z,6.97
2022-12-13T06:03:03.225Z,8.03
2022-12-13T06:06:08.619Z,9.33
2022-12-13T06:09:13.077Z,9.20
2022-12-13T06:12:32.485Z,8.67
2022-12-13T06:15:35.858Z,6.87
2022-12-13T06:18:47.887Z,9.63
2022-12-13T06:21:55.604Z,9.63
2022-12-13T06:25:01.625Z,10.63
2022-12-13T06:28:04.978Z,10.97
2022-12-13T06:31:08.134Z,11.83
2022-12-13T06:34:14.984Z,8.63
2022-12-13T06:37:18.392Z,9.90
2022-12-13T06:40:23.379Z,12.07
2022-12-13T06:43:26.580Z,9.07
2022-12-13T06:46:29.824Z,9.27
2022-12-13T06:49:33.034Z,6.57
2022-12-13T06:52:36.225Z,9.63
2022-12-13T06:55:40.709Z,10.00
2022-12-13T06:58:44.245Z,10.80
2022-12-13T07:01:50.723Z,11.57
2022-12-13T07:04:55.753Z,12.30
2022-12-13T07:07:58.874Z,10.50
2022-12-13T07:11:03.552Z,11.63
2022-12-13T07:14:06.636Z,7.70
2022-12-13T07:17:10.891Z,10.70
2022-12-13T07:20:15.876Z,8.83
2022-12-13T07:23:19.116Z,10.60
2022-12-13T07:26:29.309Z,10.93
2022-12-13T07:29:32.640Z,8.20
2022-12-13T07:32:35.727Z,11.13
2022-12-13T07:35:38.850Z,10.47
2022-12-13T07:38:42.372Z,10.03
2022-12-13T07:41:49.640Z,9.63
2022-12-13T07:44:52.716Z,11.77
2022-12-13T07:47:55.942Z,5.77
2022-12-13T07:51:03.183Z,9.83
2022-12-13T07:54:08.473Z,10.40
2022-12-13T07:57:13.412Z,12.50
2022-12-13T08:00:17.142Z,9.10
2022-12-13T08:03:25.166Z,7.17
2022-12-13T08:06:29.461Z,8.17
2022-12-13T08:09:32.560Z,7.70
2022-12-13T08:12:37.016Z,8.60
2022-12-13T08:15:40.161Z,9.40
2022-12-13T08:18:44.195Z,8.40
2022-12-13T08:21:56.749Z,12.43
2022-12-13T08:25:00.817Z,8.03
2022-12-13T08:28:05.649Z,6.20
2022-12-13T08:31:11.537Z,6.83
2022-12-13T08:34:14.673Z,10.33
2022-12-13T08:37:17.977Z,8.93
2022-12-13T08:40:21.446Z,8.43
2022-12-13T08:43:26.260Z,6.37
2022-12-13T08:46:29.491Z,7.67
2022-12-13T08:49:32.736Z,5.80
2022-12-13T08:52:39.421Z,6.60
2022-12-13T08:55:44.004Z,7.47
2022-12-13T08:58:51.500Z,7.63
2022-12-13T09:01:57.608Z,8.83
2022-12-13T09:05:03.680Z,7.17
2022-12-13T09:08:24.771Z,9.03
2022-12-13T09:11:34.490Z,11.77
2022-12-13T09:14:45.495Z,9.90
2022-12-13T09:17:52.208Z,13.00
2022-12-13T09:21:11.029Z,11.63
2022-12-13T09:24:23.983Z,8.77
2022-12-13T09:27:30.338Z,7.60
2022-12-13T09:30:34.969Z,8.37
2022-12-13T09:33:40.756Z,6.93
2022-12-13T09:36:45.013Z,9.40
2022-12-13T09:39:48.682Z,12.53
2022-12-13T09:43:13.712Z,12.23
2022-12-13T09:46:34.867Z,10.77
2022-12-13T09:49:53.175Z,18.40
2022-12-13T09:53:00.080Z,17.03
2022-12-13T09:56:11.024Z,13.70
2022-12-13T09:59:15.733Z,7.90
2022-12-13T10:02:26.115Z,12.07
2022-12-13T10:05:34.606Z,8.70
2022-12-13T10:08:45.809Z,7.87
2022-12-13T10:11:51.275Z,11.37
2022-12-13T10:14:58.203Z,11.57
2022-12-13T10:18:05.307Z,9.00
2022-12-13T10:21:12.730Z,20.03
2022-12-13T10:24:32.854Z,11.93
2022-12-13T10:27:41.648Z,13.03
2022-12-13T10:30:46.543Z,12.17
2022-12-13T10:33:56.639Z,15.27
2022-12-13T10:37:00.115Z,12.10
2022-12-13T10:40:04.017Z,10.87
2022-12-13T10:43:15.355Z,8.13
2022-12-13T10:46:25.288Z,11.27
2022-12-13T10:49:37.032Z,9.23
2022-12-13T10:52:48.136Z,11.33
2022-12-13T10:56:02.183Z,11.70
2022-12-13T10:59:22.741Z,9.17
2022-12-13T11:02:36.027Z,7.97
2022-12-13T11:05:40.975Z,8.83
2022-12-13T11:08:44.163Z,8.80
2022-12-13T11:11:47.437Z,12.53
2022-12-13T11:14:54.294Z,8.83
2022-12-13T11:17:59.674Z,10.53
2022-12-13T11:21:07.941Z,11.60
2022-12-13T11:24:17.623Z,8.57
2022-12-13T11:27:46.604Z,10.60
2022-12-13T11:30:58.071Z,12.57
2022-12-13T11:34:13.582Z,9.00
2022-12-13T11:37:40.717Z,8.27
2022-12-13T11:40:48.287Z,8.20
2022-12-13T11:43:56.121Z,8.00
2022-12-13T11:47:02.163Z,9.17
2022-12-13T11:50:20.510Z,10.80
2022-12-13T11:53:46.437Z,9.47
2022-12-13T11:56:52.557Z,8.03
2022-12-13T12:00:13.158Z,7.50
2022-12-13T12:03:20.500Z,6.13
2022-12-13T12:06:25.821Z,6.40
2022-12-13T12:09:31.289Z,6.93
2022-12-13T12:12:35.970Z,7.57
2022-12-13T12:15:45.990Z,8.40
2022-12-13T12:18:51.078Z,6.60
2022-12-13T12:22:16.462Z,8.27
2022-12-13T12:25:27.936Z,7.53
2022-12-13T12:28:44.660Z,6.43
2022-12-13T12:32:01.338Z,6.53
2022-12-13T12:35:18.236Z,7.70
2022-12-13T12:38:45.865Z,6.07
2022-12-13T12:42:01.635Z,5.33
2022-12-13T12:45:55.360Z,5.40
2022-12-13T12:49:09.781Z,6.40
2022-12-13T12:52:19.621Z,6.60
2022-12-13T12:55:34.067Z,3.80
2022-12-13T12:58:47.981Z,5.40
2022-12-13T13:01:58.356Z,7.60
2022-12-13T13:05:05.611Z,5.03
2022-12-13T13:08:15.435Z,6.43
2022-12-13T13:11:25.100Z,6.47
2022-12-13T13:14:33.239Z,6.20
2022-12-13T13:17:48.711Z,6.73
2022-12-13T13:21:26.741Z,6.77
2022-12-13T13:24:31.287Z,5.43
2022-12-13T13:27:40.272Z,6.97
2022-12-13T13:31:04.551Z,7.23
2022-12-13T13:34:24.413Z,7.30
2022-12-13T13:37:47.890Z,5.07
2022-12-13T13:40:51.852Z,5.60
2022-12-13T13:43:55.115Z,6.70
2022-12-13T13:47:14.426Z,6.57
2022-12-13T13:50:54.549Z,5.80
2022-12-13T13:54:37.384Z,4.57
2022-12-13T13:58:21.614Z,5.57
2022-12-13T14:02:00.992Z,4.87
2022-12-13T14:05:35.723Z,6.33
2022-12-13T14:08:49.252Z,6.70
2022-12-13T14:12:34.684Z,5.20
2022-12-13T14:16:20.558Z,6.50
2022-12-13T14:20:18.123Z,6.60
2022-12-13T14:23:40.214Z,6.83
2022-12-13T14:26:52.666Z,7.37
2022-12-13T14:29:57.917Z,15.00
2022-12-13T14:33:02.359Z,6.97
2022-12-13T14:36:06.137Z,7.07
2022-12-13T14:39:25.209Z,9.13
2022-12-13T14:42:33.456Z,6.73
2022-12-13T14:45:38.851Z,9.90
2022-12-13T14:48:47.770Z,8.13
2022-12-13T14:52:00.560Z,11.63
2022-12-13T14:55:06.225Z,9.00
2022-12-13T14:58:19.792Z,13.67
2022-12-13T15:01:29.302Z,19.50
2022-12-13T15:04:35.807Z,21.60
2022-12-13T15:07:41.367Z,15.20
2022-12-13T15:10:49.045Z,13.53
2022-12-13T15:13:52.772Z,7.63
2022-12-13T15:16:57.284Z,12.97
2022-12-13T15:20:01.788Z,21.90
2022-12-13T15:23:08.274Z,32.70
2022-12-13T15:26:29.256Z,21.23
2022-12-13T15:29:35.560Z,11.20
2022-12-13T15:32:58.725Z,8.50
2022-12-13T15:36:10.630Z,13.03
2022-12-13T15:39:18.277Z,13.10
2022-12-13T15:42:24.456Z,11.47
2022-12-13T15:45:34.966Z,13.03
2022-12-13T15:48:48.600Z,9.97
2022-12-13T15:51:58.048Z,29.43
2022-12-13T15:55:03.081Z,19.60
2022-12-13T15:58:26.854Z,15.87
2022-12-13T16:01:31.294Z,11.93
2022-12-13T16:04:34.989Z,10.67
2022-12-13T16:07:39.997Z,11.10
2022-12-13T16:10:48.458Z,11.37
2022-12-13T16:13:51.627Z,12.97
2022-12-13T16:17:08.656Z,16.03
2022-12-13T16:20:15.665Z,12.10
2022-12-13T16:23:27.016Z,14.20
2022-12-13T16:26:31.269Z,12.30
2022-12-13T16:29:34.458Z,11.60
2022-12-13T16:33:02.818Z,12.30
2022-12-13T16:36:00.867Z,11.47
2022-12-13T16:39:06.595Z,16.43
2022-12-13T16:42:09.783Z,19.63
2022-12-13T16:48:37.932Z,16.10
2022-12-13T16:51:46.502Z,20.50
2022-12-13T16:54:53.014Z,22.23
2022-12-13T16:57:59.266Z,14.40
2022-12-13T17:01:03.274Z,17.50
2022-12-13T17:04:12.861Z,16.57
2022-12-13T17:07:20.427Z,17.20
2022-12-13T17:10:25.978Z,19.67
2022-12-13T17:13:31.656Z,17.13
2022-12-13T17:16:35.603Z,18.17
2022-12-13T17:19:39.550Z,16.90
2022-12-13T17:22:44.560Z,15.77
2022-12-13T17:25:58.355Z,20.03
2022-12-13T17:29:04.442Z,17.83
2022-12-13T17:32:11.094Z,20.13
2022-12-13T17:35:18.274Z,18.70
2022-12-13T17:38:22.641Z,18.50
2022-12-13T17:41:28.020Z,17.20
2022-12-13T17:44:31.754Z,21.67
2022-12-13T17:47:35.266Z,20.70
2022-12-13T17:50:40.454Z,20.33
2022-12-13T17:53:45.359Z,19.20
2022-12-13T17:56:50.699Z,18.37
2022-12-13T17:59:54.730Z,18.80
2022-12-13T18:02:58.070Z,28.47
2022-12-13T18:06:01.824Z,21.37
2022-12-13T18:09:05.291Z,17.37
2022-12-13T18:12:11.364Z,19.63
2022-12-13T18:15:15.292Z,18.63
2022-12-13T18:18:20.492Z,19.80
2022-12-13T18:21:25.226Z,24.17
2022-12-13T18:24:31.161Z,21.40
2022-12-13T18:27:37.727Z,22.67
2022-12-13T18:30:42.293Z,20.67
2022-12-13T18:33:47.886Z,17.00
2022-12-13T18:36:52.825Z,19.83
2022-12-13T18:39:58.315Z,22.07
2022-12-13T18:43:04.340Z,21.33
2022-12-13T18:46:08.456Z,19.70
2022-12-13T18:49:13.699Z,20.87
2022-12-13T18:52:21.405Z,20.17
2022-12-13T18:55:25.804Z,19.50
2022-12-13T18:58:31.628Z,22.07
2022-12-13T19:01:35.980Z,19.33
2022-12-13T19:04:40.629Z,22.53
2022-12-13T19:07:45.901Z,18.57
2022-12-13T19:10:51.451Z,18.37
2022-12-13T19:13:58.159Z,16.43
2022-12-13T19:17:06.735Z,22.00
2022-12-13T19:20:12.593Z,18.47
2022-12-13T19:23:18.689Z,19.80
2022-12-13T19:26:23.316Z,30.27
2022-12-13T19:29:32.973Z,20.80
2022-12-13T19:32:37.624Z,18.70
2022-12-13T19:35:43.676Z,20.37
2022-12-13T19:38:47.798Z,17.87
2022-12-13T19:41:52.267Z,20.10
2022-12-13T19:44:58.961Z,20.73
2022-12-13T19:48:05.806Z,20.97
2022-12-13T19:51:12.147Z,16.67
2022-12-13T19:54:17.804Z,19.60
2022-12-13T19:57:26.857Z,17.73
2022-12-13T20:00:33.688Z,17.10
2022-12-13T20:03:42.396Z,17.30
2022-12-13T20:06:49.370Z,16.67
2022-12-13T20:09:54.519Z,19.10
2022-12-13T20:12:59.643Z,18.73
2022-12-13T20:16:09.517Z,18.40
2022-12-13T20:19:15.248Z,22.63
2022-12-13T20:22:20.152Z,22.20
2022-12-13T20:25:25.051Z,22.73
2022-12-13T20:28:29.853Z,21.47
2022-12-13T20:31:48.274Z,22.40
2022-12-13T20:34:55.148Z,21.70
2022-12-13T20:37:59.540Z,20.27
2022-12-13T20:41:05.789Z,23.07
2022-12-13T20:44:13.105Z,17.90
2022-12-13T20:47:20.857Z,22.33
2022-12-13T20:50:26.188Z,20.90
2022-12-13T20:53:33.912Z,21.37
2022-12-13T20:56:44.756Z,19.37
2022-12-13T20:59:49.405Z,23.83
2022-12-13T21:02:55.355Z,17.60
2022-12-13T21:06:00.060Z,15.80
2022-12-13T21:09:05.745Z,16.50
2022-12-13T21:12:09.967Z,15.47
2022-12-13T21:15:16.639Z,15.67
2022-12-13T21:18:21.367Z,19.53
2022-12-13T21:21:25.749Z,21.70
2022-12-13T21:24:30.017Z,22.53
2022-12-13T21:27:34.110Z,16.63
2022-12-13T21:30:37.693Z,166.83
2022-12-13T21:33:42.509Z,112.97
2022-12-13T21:36:47.670Z,40.30
2022-12-13T21:39:50.909Z,20.40
2022-12-13T21:42:53.973Z,19.40
2022-12-13T21:45:57.452Z,19.03
2022-12-13T21:49:01.977Z,17.57
2022-12-13T21:52:05.337Z,15.47
2022-12-13T21:55:37.874Z,19.73
2022-12-13T21:58:49.886Z,15.97
2022-12-13T22:02:12.982Z,20.77
2022-12-13T22:05:17.741Z,16.70
2022-12-13T22:08:20.909Z,20.87
2022-12-13T22:11:24.056Z,18.00
2022-12-13T22:14:27.315Z,16.50
2022-12-13T22:17:35.696Z,21.27
2022-12-13T22:20:40.828Z,17.30
2022-12-13T22:23:44.012Z,16.17
2022-12-13T22:26:47.165Z,16.17
2022-12-13T22:29:50.665Z,17.63
2022-12-13T22:32:54.144Z,16.17
2022-12-13T22:36:01.555Z,18.50
2022-12-13T22:39:06.081Z,14.70
2022-12-13T22:42:09.313Z,15.67
2022-12-13T22:45:12.641Z,15.70
2022-12-13T22:48:15.728Z,17.50
2022-12-13T22:51:20.965Z,14.93
2022-12-13T22:54:24.074Z,16.00
2022-12-13T22:57:27.194Z,13.80
2022-12-13T23:00:30.273Z,15.43
2022-12-13T23:03:33.448Z,17.80
2022-12-13T23:06:39.475Z,13.07
2022-12-13T23:09:42.640Z,15.70
2022-12-13T23:13:02.945Z,13.80
2022-12-13T23:16:07.362Z,12.87
2022-12-13T23:19:40.236Z,14.90
2022-12-13T23:22:36.854Z,13.83
2022-12-13T23:25:39.945Z,15.97
2022-12-13T23:28:45.038Z,15.90
2022-12-13T23:31:48.493Z,12.10
2022-12-13T23:34:52.383Z,17.20
2022-12-13T23:37:56.870Z,14.93
2022-12-13T23:41:05.397Z,18.93
2022-12-13T23:44:08.525Z,13.80
2022-12-13T23:47:11.645Z,13.63
2022-12-13T23:50:14.739Z,18.20
2022-12-13T23:53:19.258Z,15.50
2022-12-13T23:56:22.611Z,18.13
2022-12-13T23:59:26.169Z,13.97
